Terminal Aerodrome Forecast
Issued by NWS

Home | Current Version | Previous Version | Graphics & Text | Print | Product List | Glossary On
Versions: 1 2 3 4 5 6 7 8 9 10 11 12 13 14 15 16 17 18
000
FTUS43 KGRB 241650 AAD
TAFAUW
TAF AMD
KAUW 241650Z 2417/2512 24007KT P6SM OVC006
     FM241800 21011KT P6SM BKN012 BKN025
     FM241900 27012KT P6SM BKN035
     FM242000 27011G19KT P6SM SCT045
     FM250200 28008KT P6SM FEW250=

USA.gov is the U.S. government's official web portal to all federal, state and local government web resources and services.